sensor_id;sensor_type;location;lat;lon;timestamp;temperature;humidity
78708;SHT31;68037;51.978;5.650;2023-04-24T00:02:15;11.5;78.4
78708;SHT31;68037;51.978;5.650;2023-04-24T00:04:44;11.5;78.4
78708;SHT31;68037;51.978;5.650;2023-04-24T00:07:14;11.5;78.2
78708;SHT31;68037;51.978;5.650;2023-04-24T00:09:46;11.5;77.7
78708;SHT31;68037;51.978;5.650;2023-04-24T00:12:15;11.5;77.8
78708;SHT31;68037;51.978;5.650;2023-04-24T00:14:45;11.5;77.5
78708;SHT31;68037;51.978;5.650;2023-04-24T00:17:14;11.5;77.4
78708;SHT31;68037;51.978;5.650;2023-04-24T00:19:47;11.6;77.4
78708;SHT31;68037;51.978;5.650;2023-04-24T00:22:18;11.6;77.3
78708;SHT31;68037;51.978;5.650;2023-04-24T00:24:48;11.6;77.6
78708;SHT31;68037;51.978;5.650;2023-04-24T00:27:17;11.6;77.4
78708;SHT31;68037;51.978;5.650;2023-04-24T00:29:47;11.6;77.1
78708;SHT31;68037;51.978;5.650;2023-04-24T00:32:16;11.7;76.8
78708;SHT31;68037;51.978;5.650;2023-04-24T00:34:46;11.7;76.4
78708;SHT31;68037;51.978;5.650;2023-04-24T00:37:16;11.7;76.9
78708;SHT31;68037;51.978;5.650;2023-04-24T00:39:45;11.7;76.3
78708;SHT31;68037;51.978;5.650;2023-04-24T00:42:15;11.7;76.3
78708;SHT31;68037;51.978;5.650;2023-04-24T00:44:44;11.7;76.9
78708;SHT31;68037;51.978;5.650;2023-04-24T00:47:14;11.7;77.1
78708;SHT31;68037;51.978;5.650;2023-04-24T00:49:44;11.7;77.2
78708;SHT31;68037;51.978;5.650;2023-04-24T00:52:13;11.6;77.6
78708;SHT31;68037;51.978;5.650;2023-04-24T00:54:45;11.6;77.3
78708;SHT31;68037;51.978;5.650;2023-04-24T00:57:14;11.6;77.5
78708;SHT31;68037;51.978;5.650;2023-04-24T00:59:48;11.6;78.6
78708;SHT31;68037;51.978;5.650;2023-04-24T01:02:20;11.6;79.2
78708;SHT31;68037;51.978;5.650;2023-04-24T01:04:52;11.6;77.7
78708;SHT31;68037;51.978;5.650;2023-04-24T01:07:24;11.6;77.0
78708;SHT31;68037;51.978;5.650;2023-04-24T01:09:54;11.6;76.8
78708;SHT31;68037;51.978;5.650;2023-04-24T01:12:24;11.6;76.9
78708;SHT31;68037;51.978;5.650;2023-04-24T01:14:54;11.6;76.6
78708;SHT31;68037;51.978;5.650;2023-04-24T01:17:24;11.6;77.1
78708;SHT31;68037;51.978;5.650;2023-04-24T01:19:54;11.5;77.0
78708;SHT31;68037;51.978;5.650;2023-04-24T01:22:24;11.5;77.4
78708;SHT31;68037;51.978;5.650;2023-04-24T01:24:54;11.4;77.4
78708;SHT31;68037;51.978;5.650;2023-04-24T01:27:23;11.4;77.5
78708;SHT31;68037;51.978;5.650;2023-04-24T01:29:55;11.4;77.7
78708;SHT31;68037;51.978;5.650;2023-04-24T01:32:25;11.4;78.1
78708;SHT31;68037;51.978;5.650;2023-04-24T01:34:55;11.4;78.2
78708;SHT31;68037;51.978;5.650;2023-04-24T01:37:25;11.4;78.3
78708;SHT31;68037;51.978;5.650;2023-04-24T01:39:55;11.4;78.4
78708;SHT31;68037;51.978;5.650;2023-04-24T01:42:25;11.4;78.1
78708;SHT31;68037;51.978;5.650;2023-04-24T01:44:55;11.4;78.2
78708;SHT31;68037;51.978;5.650;2023-04-24T01:47:25;11.4;78.6
78708;SHT31;68037;51.978;5.650;2023-04-24T01:49:57;11.4;78.9
78708;SHT31;68037;51.978;5.650;2023-04-24T01:52:27;11.4;79.5
78708;SHT31;68037;51.978;5.650;2023-04-24T01:54:59;11.4;79.2
78708;SHT31;68037;51.978;5.650;2023-04-24T01:57:30;11.4;79.5
78708;SHT31;68037;51.978;5.650;2023-04-24T02:00:00;11.4;79.8
78708;SHT31;68037;51.978;5.650;2023-04-24T02:02:31;11.4;79.8
78708;SHT31;68037;51.978;5.650;2023-04-24T02:05:05;11.4;80.1
78708;SHT31;68037;51.978;5.650;2023-04-24T02:07:35;11.4;80.0
78708;SHT31;68037;51.978;5.650;2023-04-24T02:10:05;11.5;79.8
78708;SHT31;68037;51.978;5.650;2023-04-24T02:12:35;11.5;79.6
78708;SHT31;68037;51.978;5.650;2023-04-24T02:15:05;11.6;79.3
78708;SHT31;68037;51.978;5.650;2023-04-24T02:17:37;11.6;79.5
78708;SHT31;68037;51.978;5.650;2023-04-24T02:20:07;11.6;79.3
78708;SHT31;68037;51.978;5.650;2023-04-24T02:22:37;11.6;79.3
78708;SHT31;68037;51.978;5.650;2023-04-24T02:25:07;11.7;79.1
78708;SHT31;68037;51.978;5.650;2023-04-24T02:27:37;11.7;79.2
78708;SHT31;68037;51.978;5.650;2023-04-24T02:30:08;11.7;79.3
78708;SHT31;68037;51.978;5.650;2023-04-24T02:32:38;11.7;79.5
78708;SHT31;68037;51.978;5.650;2023-04-24T02:35:13;11.7;79.7
78708;SHT31;68037;51.978;5.650;2023-04-24T02:37:43;11.7;79.2
78708;SHT31;68037;51.978;5.650;2023-04-24T02:40:13;11.7;78.4
78708;SHT31;68037;51.978;5.650;2023-04-24T02:42:42;11.7;78.2
78708;SHT31;68037;51.978;5.650;2023-04-24T02:45:14;11.6;78.9
78708;SHT31;68037;51.978;5.650;2023-04-24T02:47:45;11.6;79.1
78708;SHT31;68037;51.978;5.650;2023-04-24T02:50:15;11.6;79.2
78708;SHT31;68037;51.978;5.650;2023-04-24T02:52:44;11.6;78.3
78708;SHT31;68037;51.978;5.650;2023-04-24T02:55:14;11.6;78.8
78708;SHT31;68037;51.978;5.650;2023-04-24T02:57:43;11.5;78.8
78708;SHT31;68037;51.978;5.650;2023-04-24T03:00:13;11.5;78.5
78708;SHT31;68037;51.978;5.650;2023-04-24T03:02:43;11.5;78.5
78708;SHT31;68037;51.978;5.650;2023-04-24T03:05:13;11.4;79.0
78708;SHT31;68037;51.978;5.650;2023-04-24T03:07:43;11.4;79.1
78708;SHT31;68037;51.978;5.650;2023-04-24T03:10:13;11.4;79.0
78708;SHT31;68037;51.978;5.650;2023-04-24T03:12:42;11.4;79.9
78708;SHT31;68037;51.978;5.650;2023-04-24T03:15:15;11.4;79.4
78708;SHT31;68037;51.978;5.650;2023-04-24T03:17:44;11.4;80.3
78708;SHT31;68037;51.978;5.650;2023-04-24T03:20:15;11.4;80.1
78708;SHT31;68037;51.978;5.650;2023-04-24T03:22:45;11.3;81.2
78708;SHT31;68037;51.978;5.650;2023-04-24T03:25:16;11.3;81.2
78708;SHT31;68037;51.978;5.650;2023-04-24T03:27:45;11.3;80.8
78708;SHT31;68037;51.978;5.650;2023-04-24T03:30:15;11.3;81.0
78708;SHT31;68037;51.978;5.650;2023-04-24T03:32:45;11.3;80.9
78708;SHT31;68037;51.978;5.650;2023-04-24T03:35:16;11.3;80.5
78708;SHT31;68037;51.978;5.650;2023-04-24T03:37:46;11.3;80.8
78708;SHT31;68037;51.978;5.650;2023-04-24T03:40:15;11.3;80.7
78708;SHT31;68037;51.978;5.650;2023-04-24T03:42:45;11.3;80.7
78708;SHT31;68037;51.978;5.650;2023-04-24T03:45:14;11.3;80.3
78708;SHT31;68037;51.978;5.650;2023-04-24T03:47:44;11.3;80.3
78708;SHT31;68037;51.978;5.650;2023-04-24T03:50:14;11.3;80.4
78708;SHT31;68037;51.978;5.650;2023-04-24T03:52:44;11.3;80.5
78708;SHT31;68037;51.978;5.650;2023-04-24T03:55:13;11.3;80.3
78708;SHT31;68037;51.978;5.650;2023-04-24T03:57:42;11.3;80.2
78708;SHT31;68037;51.978;5.650;2023-04-24T04:00:13;11.3;80.1
78708;SHT31;68037;51.978;5.650;2023-04-24T04:02:43;11.2;79.8
78708;SHT31;68037;51.978;5.650;2023-04-24T04:05:12;11.2;79.6
78708;SHT31;68037;51.978;5.650;2023-04-24T04:07:42;11.2;79.4
78708;SHT31;68037;51.978;5.650;2023-04-24T04:10:11;11.2;79.1
78708;SHT31;68037;51.978;5.650;2023-04-24T04:12:41;11.1;79.7
78708;SHT31;68037;51.978;5.650;2023-04-24T04:15:11;11.1;79.9
78708;SHT31;68037;51.978;5.650;2023-04-24T04:17:41;11.1;79.8
78708;SHT31;68037;51.978;5.650;2023-04-24T04:20:12;11.1;79.7
78708;SHT31;68037;51.978;5.650;2023-04-24T04:22:42;11.1;80.2
78708;SHT31;68037;51.978;5.650;2023-04-24T04:25:14;11.0;79.9
78708;SHT31;68037;51.978;5.650;2023-04-24T04:27:46;11.0;80.1
78708;SHT31;68037;51.978;5.650;2023-04-24T04:30:21;11.0;80.4
78708;SHT31;68037;51.978;5.650;2023-04-24T04:32:51;11.0;81.0
78708;SHT31;68037;51.978;5.650;2023-04-24T04:35:20;11.0;81.0
78708;SHT31;68037;51.978;5.650;2023-04-24T04:37:49;11.0;80.6
78708;SHT31;68037;51.978;5.650;2023-04-24T04:40:20;11.0;81.3
78708;SHT31;68037;51.978;5.650;2023-04-24T04:42:50;11.0;81.1
78708;SHT31;68037;51.978;5.650;2023-04-24T04:45:23;11.0;80.7
78708;SHT31;68037;51.978;5.650;2023-04-24T04:47:55;11.0;80.8
78708;SHT31;68037;51.978;5.650;2023-04-24T04:50:24;10.9;80.7
78708;SHT31;68037;51.978;5.650;2023-04-24T04:52:54;10.9;80.8
78708;SHT31;68037;51.978;5.650;2023-04-24T04:55:26;10.9;81.1
78708;SHT31;68037;51.978;5.650;2023-04-24T04:57:55;10.8;81.1
78708;SHT31;68037;51.978;5.650;2023-04-24T05:00:27;10.8;80.0
78708;SHT31;68037;51.978;5.650;2023-04-24T05:03:01;10.8;80.6
78708;SHT31;68037;51.978;5.650;2023-04-24T05:05:30;10.8;80.6
78708;SHT31;68037;51.978;5.650;2023-04-24T05:08:00;10.8;80.7
78708;SHT31;68037;51.978;5.650;2023-04-24T05:10:29;10.9;80.4
78708;SHT31;68037;51.978;5.650;2023-04-24T05:12:58;10.9;80.7
78708;SHT31;68037;51.978;5.650;2023-04-24T05:15:28;10.9;80.8
78708;SHT31;68037;51.978;5.650;2023-04-24T05:17:57;10.9;80.6
78708;SHT31;68037;51.978;5.650;2023-04-24T05:20:27;11.0;80.6
78708;SHT31;68037;51.978;5.650;2023-04-24T05:22:56;11.0;80.0
78708;SHT31;68037;51.978;5.650;2023-04-24T05:25:26;11.0;81.0
78708;SHT31;68037;51.978;5.650;2023-04-24T05:27:55;11.1;79.2
78708;SHT31;68037;51.978;5.650;2023-04-24T05:30:25;11.1;79.0
78708;SHT31;68037;51.978;5.650;2023-04-24T05:32:54;11.1;79.4
78708;SHT31;68037;51.978;5.650;2023-04-24T05:35:24;11.2;79.6
78708;SHT31;68037;51.978;5.650;2023-04-24T05:37:53;11.2;79.9
78708;SHT31;68037;51.978;5.650;2023-04-24T05:40:24;11.3;79.7
78708;SHT31;68037;51.978;5.650;2023-04-24T05:42:54;11.3;78.9
78708;SHT31;68037;51.978;5.650;2023-04-24T05:45:23;11.4;79.0
78708;SHT31;68037;51.978;5.650;2023-04-24T05:47:53;11.4;78.6
78708;SHT31;68037;51.978;5.650;2023-04-24T05:50:23;11.5;79.5
78708;SHT31;68037;51.978;5.650;2023-04-24T05:52:52;11.5;79.8
78708;SHT31;68037;51.978;5.650;2023-04-24T05:55:24;11.5;79.7
78708;SHT31;68037;51.978;5.650;2023-04-24T05:57:54;11.5;79.7
78708;SHT31;68037;51.978;5.650;2023-04-24T06:00:24;11.6;78.7
78708;SHT31;68037;51.978;5.650;2023-04-24T06:02:54;11.6;79.6
78708;SHT31;68037;51.978;5.650;2023-04-24T06:05:26;11.6;78.6
78708;SHT31;68037;51.978;5.650;2023-04-24T06:07:57;11.6;79.6
78708;SHT31;68037;51.978;5.650;2023-04-24T06:10:27;11.7;79.2
78708;SHT31;68037;51.978;5.650;2023-04-24T06:12:57;11.7;78.7
78708;SHT31;68037;51.978;5.650;2023-04-24T06:15:30;11.8;79.0
78708;SHT31;68037;51.978;5.650;2023-04-24T06:18:00;11.8;78.6
78708;SHT31;68037;51.978;5.650;2023-04-24T06:20:30;11.9;78.3
78708;SHT31;68037;51.978;5.650;2023-04-24T06:22:59;11.9;78.2
78708;SHT31;68037;51.978;5.650;2023-04-24T06:25:30;11.9;77.7
78708;SHT31;68037;51.978;5.650;2023-04-24T06:28:00;11.9;78.3
78708;SHT31;68037;51.978;5.650;2023-04-24T06:30:30;11.9;78.8
78708;SHT31;68037;51.978;5.650;2023-04-24T06:32:59;11.8;78.1
78708;SHT31;68037;51.978;5.650;2023-04-24T06:35:29;11.8;78.1
78708;SHT31;68037;51.978;5.650;2023-04-24T06:37:58;11.8;78.6
78708;SHT31;68037;51.978;5.650;2023-04-24T06:40:30;11.7;78.0
78708;SHT31;68037;51.978;5.650;2023-04-24T06:43:00;11.7;78.2
78708;SHT31;68037;51.978;5.650;2023-04-24T06:45:30;11.6;79.0
78708;SHT31;68037;51.978;5.650;2023-04-24T06:47:59;11.6;79.2
78708;SHT31;68037;51.978;5.650;2023-04-24T06:50:30;11.5;79.6
78708;SHT31;68037;51.978;5.650;2023-04-24T06:53:00;11.5;79.2
78708;SHT31;68037;51.978;5.650;2023-04-24T06:55:30;11.4;78.5
78708;SHT31;68037;51.978;5.650;2023-04-24T06:57:59;11.4;79.0
78708;SHT31;68037;51.978;5.650;2023-04-24T07:00:29;11.3;79.8
78708;SHT31;68037;51.978;5.650;2023-04-24T07:02:59;11.3;79.7
78708;SHT31;68037;51.978;5.650;2023-04-24T07:05:29;11.2;80.0
78708;SHT31;68037;51.978;5.650;2023-04-24T07:08:01;11.2;79.6
78708;SHT31;68037;51.978;5.650;2023-04-24T07:10:31;11.1;80.5
78708;SHT31;68037;51.978;5.650;2023-04-24T07:13:02;11.1;80.1
78708;SHT31;68037;51.978;5.650;2023-04-24T07:15:32;11.1;79.8
78708;SHT31;68037;51.978;5.650;2023-04-24T07:18:01;11.1;79.1
78708;SHT31;68037;51.978;5.650;2023-04-24T07:20:31;11.0;79.5
78708;SHT31;68037;51.978;5.650;2023-04-24T07:23:02;11.0;79.5
78708;SHT31;68037;51.978;5.650;2023-04-24T07:25:31;10.9;79.8
78708;SHT31;68037;51.978;5.650;2023-04-24T07:28:01;10.9;79.8
78708;SHT31;68037;51.978;5.650;2023-04-24T07:30:31;10.9;79.6
78708;SHT31;68037;51.978;5.650;2023-04-24T07:33:01;10.9;79.7
78708;SHT31;68037;51.978;5.650;2023-04-24T07:35:34;10.9;80.1
78708;SHT31;68037;51.978;5.650;2023-04-24T07:38:04;10.8;79.4
78708;SHT31;68037;51.978;5.650;2023-04-24T07:40:36;10.8;79.6
78708;SHT31;68037;51.978;5.650;2023-04-24T07:43:05;10.8;79.1
78708;SHT31;68037;51.978;5.650;2023-04-24T07:45:35;10.8;79.3
78708;SHT31;68037;51.978;5.650;2023-04-24T07:48:06;10.7;79.2
78708;SHT31;68037;51.978;5.650;2023-04-24T07:50:36;10.7;79.1
78708;SHT31;68037;51.978;5.650;2023-04-24T07:53:05;10.7;79.4
78708;SHT31;68037;51.978;5.650;2023-04-24T07:55:42;10.6;79.8
78708;SHT31;68037;51.978;5.650;2023-04-24T07:58:14;10.7;79.5
78708;SHT31;68037;51.978;5.650;2023-04-24T08:00:43;10.8;79.0
78708;SHT31;68037;51.978;5.650;2023-04-24T08:03:13;10.8;78.7
78708;SHT31;68037;51.978;5.650;2023-04-24T08:05:46;10.8;78.4
78708;SHT31;68037;51.978;5.650;2023-04-24T08:08:18;10.7;78.9
78708;SHT31;68037;51.978;5.650;2023-04-24T08:10:48;10.7;79.3
78708;SHT31;68037;51.978;5.650;2023-04-24T08:13:17;10.7;78.8
78708;SHT31;68037;51.978;5.650;2023-04-24T08:15:48;10.6;79.1
78708;SHT31;68037;51.978;5.650;2023-04-24T08:18:18;10.6;79.3
78708;SHT31;68037;51.978;5.650;2023-04-24T08:20:47;10.6;79.5
78708;SHT31;68037;51.978;5.650;2023-04-24T08:23:17;10.6;79.9
78708;SHT31;68037;51.978;5.650;2023-04-24T08:25:47;10.5;79.7
78708;SHT31;68037;51.978;5.650;2023-04-24T08:28:16;10.5;79.9
78708;SHT31;68037;51.978;5.650;2023-04-24T08:30:47;10.5;80.1
78708;SHT31;68037;51.978;5.650;2023-04-24T08:33:22;10.5;80.6
78708;SHT31;68037;51.978;5.650;2023-04-24T08:35:53;10.5;80.8
78708;SHT31;68037;51.978;5.650;2023-04-24T08:38:22;10.5;80.7
78708;SHT31;68037;51.978;5.650;2023-04-24T08:40:54;10.5;80.5
78708;SHT31;68037;51.978;5.650;2023-04-24T08:43:24;10.5;81.6
78708;SHT31;68037;51.978;5.650;2023-04-24T08:45:56;10.5;81.4
78708;SHT31;68037;51.978;5.650;2023-04-24T08:48:26;10.5;80.9
78708;SHT31;68037;51.978;5.650;2023-04-24T08:50:57;10.5;81.3
78708;SHT31;68037;51.978;5.650;2023-04-24T08:53:29;10.6;80.8
78708;SHT31;68037;51.978;5.650;2023-04-24T08:56:01;10.6;80.5
78708;SHT31;68037;51.978;5.650;2023-04-24T08:58:31;10.6;80.4
78708;SHT31;68037;51.978;5.650;2023-04-24T09:01:01;10.6;79.4
78708;SHT31;68037;51.978;5.650;2023-04-24T09:03:33;10.6;78.8
78708;SHT31;68037;51.978;5.650;2023-04-24T09:06:03;10.6;79.3
78708;SHT31;68037;51.978;5.650;2023-04-24T09:08:36;10.6;79.1
78708;SHT31;68037;51.978;5.650;2023-04-24T09:11:07;10.6;78.2
78708;SHT31;68037;51.978;5.650;2023-04-24T09:13:37;10.5;78.6
78708;SHT31;68037;51.978;5.650;2023-04-24T09:16:07;10.5;77.5
78708;SHT31;68037;51.978;5.650;2023-04-24T09:18:37;10.5;77.2
78708;SHT31;68037;51.978;5.650;2023-04-24T09:21:08;10.5;77.5
78708;SHT31;68037;51.978;5.650;2023-04-24T09:23:38;10.5;77.0
78708;SHT31;68037;51.978;5.650;2023-04-24T09:26:09;10.5;77.1
78708;SHT31;68037;51.978;5.650;2023-04-24T09:28:40;10.4;78.0
78708;SHT31;68037;51.978;5.650;2023-04-24T09:31:14;10.4;76.2
78708;SHT31;68037;51.978;5.650;2023-04-24T09:33:53;10.4;76.3
78708;SHT31;68037;51.978;5.650;2023-04-24T09:36:31;10.4;76.8
78708;SHT31;68037;51.978;5.650;2023-04-24T09:39:05;10.4;78.2
78708;SHT31;68037;51.978;5.650;2023-04-24T09:41:46;10.5;77.5
78708;SHT31;68037;51.978;5.650;2023-04-24T09:44:18;10.5;76.5
78708;SHT31;68037;51.978;5.650;2023-04-24T09:46:52;10.6;76.6
78708;SHT31;68037;51.978;5.650;2023-04-24T09:49:25;10.6;75.1
78708;SHT31;68037;51.978;5.650;2023-04-24T09:52:05;10.6;75.1
78708;SHT31;68037;51.978;5.650;2023-04-24T09:54:36;10.6;73.8
78708;SHT31;68037;51.978;5.650;2023-04-24T09:57:07;10.6;75.7
78708;SHT31;68037;51.978;5.650;2023-04-24T09:59:42;10.6;74.1
78708;SHT31;68037;51.978;5.650;2023-04-24T10:02:19;10.7;74.3
78708;SHT31;68037;51.978;5.650;2023-04-24T10:04:57;10.7;74.2
78708;SHT31;68037;51.978;5.650;2023-04-24T10:07:27;10.7;73.4
78708;SHT31;68037;51.978;5.650;2023-04-24T10:09:57;10.7;75.7
78708;SHT31;68037;51.978;5.650;2023-04-24T10:12:28;10.8;76.2
78708;SHT31;68037;51.978;5.650;2023-04-24T10:14:59;10.9;75.8
78708;SHT31;68037;51.978;5.650;2023-04-24T10:17:29;10.9;73.5
78708;SHT31;68037;51.978;5.650;2023-04-24T10:20:00;11.0;74.7
78708;SHT31;68037;51.978;5.650;2023-04-24T10:22:32;11.1;71.5
78708;SHT31;68037;51.978;5.650;2023-04-24T10:25:03;11.2;70.1
78708;SHT31;68037;51.978;5.650;2023-04-24T10:27:34;11.2;71.4
78708;SHT31;68037;51.978;5.650;2023-04-24T10:30:06;11.2;68.4
78708;SHT31;68037;51.978;5.650;2023-04-24T10:32:38;11.3;68.4
78708;SHT31;68037;51.978;5.650;2023-04-24T10:35:08;11.3;67.4
78708;SHT31;68037;51.978;5.650;2023-04-24T10:37:42;11.3;69.7
78708;SHT31;68037;51.978;5.650;2023-04-24T10:40:17;11.4;69.3
78708;SHT31;68037;51.978;5.650;2023-04-24T10:42:54;11.4;68.2
78708;SHT31;68037;51.978;5.650;2023-04-24T10:45:25;11.5;67.1
78708;SHT31;68037;51.978;5.650;2023-04-24T10:47:57;11.5;67.2
78708;SHT31;68037;51.978;5.650;2023-04-24T10:50:42;11.5;66.7
78708;SHT31;68037;51.978;5.650;2023-04-24T10:53:13;11.5;66.5
78708;SHT31;68037;51.978;5.650;2023-04-24T10:55:45;11.4;67.1
78708;SHT31;68037;51.978;5.650;2023-04-24T10:58:16;11.4;68.7
78708;SHT31;68037;51.978;5.650;2023-04-24T11:00:59;11.4;68.9
78708;SHT31;68037;51.978;5.650;2023-04-24T11:03:30;11.4;68.4
78708;SHT31;68037;51.978;5.650;2023-04-24T11:06:02;11.4;68.0
78708;SHT31;68037;51.978;5.650;2023-04-24T11:08:36;11.5;67.5
78708;SHT31;68037;51.978;5.650;2023-04-24T11:11:12;11.5;67.8
78708;SHT31;68037;51.978;5.650;2023-04-24T11:14:04;11.6;67.0
78708;SHT31;68037;51.978;5.650;2023-04-24T11:16:39;11.6;68.0
78708;SHT31;68037;51.978;5.650;2023-04-24T11:19:21;11.8;66.8
78708;SHT31;68037;51.978;5.650;2023-04-24T11:21:59;11.9;66.7
78708;SHT31;68037;51.978;5.650;2023-04-24T11:24:48;12.0;65.8
78708;SHT31;68037;51.978;5.650;2023-04-24T11:27:16;12.1;67.4
78708;SHT31;68037;51.978;5.650;2023-04-24T11:29:49;12.2;66.2
78708;SHT31;68037;51.978;5.650;2023-04-24T11:32:28;12.3;67.1
78708;SHT31;68037;51.978;5.650;2023-04-24T11:35:00;12.5;66.0
78708;SHT31;68037;51.978;5.650;2023-04-24T11:37:38;12.6;67.1
78708;SHT31;68037;51.978;5.650;2023-04-24T11:40:09;12.7;64.8
78708;SHT31;68037;51.978;5.650;2023-04-24T11:42:41;12.7;65.3
78708;SHT31;68037;51.978;5.650;2023-04-24T11:45:13;12.7;62.9
78708;SHT31;68037;51.978;5.650;2023-04-24T11:47:44;12.7;63.2
78708;SHT31;68037;51.978;5.650;2023-04-24T11:50:16;12.7;63.0
78708;SHT31;68037;51.978;5.650;2023-04-24T11:52:47;12.6;63.7
78708;SHT31;68037;51.978;5.650;2023-04-24T11:55:28;12.6;63.7
78708;SHT31;68037;51.978;5.650;2023-04-24T11:57:59;12.5;63.9
78708;SHT31;68037;51.978;5.650;2023-04-24T12:00:31;12.4;65.1
78708;SHT31;68037;51.978;5.650;2023-04-24T12:03:08;12.3;65.2
78708;SHT31;68037;51.978;5.650;2023-04-24T12:05:39;12.2;65.7
78708;SHT31;68037;51.978;5.650;2023-04-24T12:08:11;12.1;66.4
78708;SHT31;68037;51.978;5.650;2023-04-24T12:10:41;12.1;66.9
78708;SHT31;68037;51.978;5.650;2023-04-24T12:13:11;12.0;65.9
78708;SHT31;68037;51.978;5.650;2023-04-24T12:15:42;12.0;67.5
78708;SHT31;68037;51.978;5.650;2023-04-24T12:18:15;11.9;68.2
78708;SHT31;68037;51.978;5.650;2023-04-24T12:20:47;11.9;67.8
78708;SHT31;68037;51.978;5.650;2023-04-24T12:23:37;11.9;67.0
78708;SHT31;68037;51.978;5.650;2023-04-24T12:26:09;12.0;66.2
78708;SHT31;68037;51.978;5.650;2023-04-24T12:28:39;12.0;66.0
78708;SHT31;68037;51.978;5.650;2023-04-24T12:31:11;12.0;65.9
78708;SHT31;68037;51.978;5.650;2023-04-24T12:33:40;12.1;63.9
78708;SHT31;68037;51.978;5.650;2023-04-24T12:36:11;12.1;65.4
78708;SHT31;68037;51.978;5.650;2023-04-24T12:38:44;12.1;64.6
78708;SHT31;68037;51.978;5.650;2023-04-24T12:41:14;12.1;65.7
78708;SHT31;68037;51.978;5.650;2023-04-24T12:43:53;12.2;65.1
78708;SHT31;68037;51.978;5.650;2023-04-24T12:46:23;12.2;64.8
78708;SHT31;68037;51.978;5.650;2023-04-24T12:48:53;12.2;64.7
78708;SHT31;68037;51.978;5.650;2023-04-24T12:51:22;12.2;63.5
78708;SHT31;68037;51.978;5.650;2023-04-24T12:53:52;12.2;62.9
78708;SHT31;68037;51.978;5.650;2023-04-24T12:56:22;12.2;63.6
78708;SHT31;68037;51.978;5.650;2023-04-24T12:58:52;12.3;63.6
78708;SHT31;68037;51.978;5.650;2023-04-24T13:01:21;12.3;63.6
78708;SHT31;68037;51.978;5.650;2023-04-24T13:03:50;12.4;62.7
78708;SHT31;68037;51.978;5.650;2023-04-24T13:06:22;12.4;61.7
78708;SHT31;68037;51.978;5.650;2023-04-24T13:08:52;12.5;63.0
78708;SHT31;68037;51.978;5.650;2023-04-24T13:11:22;12.5;61.8
78708;SHT31;68037;51.978;5.650;2023-04-24T13:13:52;12.5;60.3
78708;SHT31;68037;51.978;5.650;2023-04-24T13:16:21;12.5;60.2
78708;SHT31;68037;51.978;5.650;2023-04-24T13:18:51;12.5;60.5
78708;SHT31;68037;51.978;5.650;2023-04-24T13:21:21;12.5;61.4
78708;SHT31;68037;51.978;5.650;2023-04-24T13:23:50;12.6;61.3
78708;SHT31;68037;51.978;5.650;2023-04-24T13:26:20;12.6;61.1
78708;SHT31;68037;51.978;5.650;2023-04-24T13:28:50;12.6;61.4
78708;SHT31;68037;51.978;5.650;2023-04-24T13:31:20;12.6;61.9
78708;SHT31;68037;51.978;5.650;2023-04-24T13:33:50;12.6;61.6
78708;SHT31;68037;51.978;5.650;2023-04-24T13:36:19;12.7;60.6
78708;SHT31;68037;51.978;5.650;2023-04-24T13:38:51;12.8;61.3
78708;SHT31;68037;51.978;5.650;2023-04-24T13:41:20;12.8;59.5
78708;SHT31;68037;51.978;5.650;2023-04-24T13:43:51;12.9;57.7
78708;SHT31;68037;51.978;5.650;2023-04-24T13:46:21;13.0;57.8
78708;SHT31;68037;51.978;5.650;2023-04-24T13:48:51;13.1;55.6
78708;SHT31;68037;51.978;5.650;2023-04-24T13:51:20;13.1;56.1
78708;SHT31;68037;51.978;5.650;2023-04-24T13:53:50;13.2;56.8
78708;SHT31;68037;51.978;5.650;2023-04-24T13:56:20;13.3;55.6
78708;SHT31;68037;51.978;5.650;2023-04-24T13:58:50;13.4;55.4
78708;SHT31;68037;51.978;5.650;2023-04-24T14:01:21;13.5;54.1
78708;SHT31;68037;51.978;5.650;2023-04-24T14:03:52;13.5;55.2
78708;SHT31;68037;51.978;5.650;2023-04-24T14:06:22;13.6;53.7
78708;SHT31;68037;51.978;5.650;2023-04-24T14:08:55;13.6;54.7
78708;SHT31;68037;51.978;5.650;2023-04-24T14:11:26;13.6;54.7
78708;SHT31;68037;51.978;5.650;2023-04-24T14:13:56;13.6;53.9
78708;SHT31;68037;51.978;5.650;2023-04-24T14:16:26;13.6;53.2
78708;SHT31;68037;51.978;5.650;2023-04-24T14:18:55;13.6;51.7
78708;SHT31;68037;51.978;5.650;2023-04-24T14:21:25;13.6;53.0
78708;SHT31;68037;51.978;5.650;2023-04-24T14:23:54;13.7;52.4
78708;SHT31;68037;51.978;5.650;2023-04-24T14:26:24;13.7;51.8
78708;SHT31;68037;51.978;5.650;2023-04-24T14:28:54;13.7;51.5
78708;SHT31;68037;51.978;5.650;2023-04-24T14:31:26;13.7;50.7
78708;SHT31;68037;51.978;5.650;2023-04-24T14:33:56;13.7;50.8
78708;SHT31;68037;51.978;5.650;2023-04-24T14:36:26;13.8;50.9
78708;SHT31;68037;51.978;5.650;2023-04-24T14:38:56;13.8;52.2
78708;SHT31;68037;51.978;5.650;2023-04-24T14:41:25;13.8;50.0
78708;SHT31;68037;51.978;5.650;2023-04-24T14:43:54;13.9;51.0
78708;SHT31;68037;51.978;5.650;2023-04-24T14:46:24;13.9;51.4
78708;SHT31;68037;51.978;5.650;2023-04-24T14:48:54;13.9;49.5
78708;SHT31;68037;51.978;5.650;2023-04-24T14:51:23;13.9;50.5
78708;SHT31;68037;51.978;5.650;2023-04-24T14:53:54;13.9;50.6
78708;SHT31;68037;51.978;5.650;2023-04-24T14:56:25;13.9;50.8
78708;SHT31;68037;51.978;5.650;2023-04-24T14:58:56;13.9;51.1
78708;SHT31;68037;51.978;5.650;2023-04-24T15:01:26;13.9;51.7
78708;SHT31;68037;51.978;5.650;2023-04-24T15:03:55;13.9;51.8
78708;SHT31;68037;51.978;5.650;2023-04-24T15:06:25;13.9;52.0
78708;SHT31;68037;51.978;5.650;2023-04-24T15:08:55;13.9;52.4
78708;SHT31;68037;51.978;5.650;2023-04-24T15:11:24;13.9;51.6
78708;SHT31;68037;51.978;5.650;2023-04-24T15:13:55;13.9;50.5
78708;SHT31;68037;51.978;5.650;2023-04-24T15:16:25;13.9;49.9
78708;SHT31;68037;51.978;5.650;2023-04-24T15:18:55;13.8;50.2
78708;SHT31;68037;51.978;5.650;2023-04-24T15:21:24;13.8;50.2
78708;SHT31;68037;51.978;5.650;2023-04-24T15:23:54;13.7;50.6
78708;SHT31;68037;51.978;5.650;2023-04-24T15:26:24;13.7;51.4
78708;SHT31;68037;51.978;5.650;2023-04-24T15:28:54;13.6;52.7
78708;SHT31;68037;51.978;5.650;2023-04-24T15:31:24;13.6;54.0
78708;SHT31;68037;51.978;5.650;2023-04-24T15:33:53;13.6;53.3
78708;SHT31;68037;51.978;5.650;2023-04-24T15:36:23;13.6;53.6
78708;SHT31;68037;51.978;5.650;2023-04-24T15:38:52;13.6;53.7
78708;SHT31;68037;51.978;5.650;2023-04-24T15:41:22;13.6;52.5
78708;SHT31;68037;51.978;5.650;2023-04-24T15:43:53;13.6;52.3
78708;SHT31;68037;51.978;5.650;2023-04-24T15:46:22;13.7;51.7
78708;SHT31;68037;51.978;5.650;2023-04-24T15:48:53;13.8;52.8
78708;SHT31;68037;51.978;5.650;2023-04-24T15:51:22;14.1;51.8
78708;SHT31;68037;51.978;5.650;2023-04-24T15:53:54;14.4;50.2
78708;SHT31;68037;51.978;5.650;2023-04-24T15:56:23;14.5;50.8
78708;SHT31;68037;51.978;5.650;2023-04-24T15:58:53;14.6;50.9
78708;SHT31;68037;51.978;5.650;2023-04-24T16:01:23;14.6;51.3
78708;SHT31;68037;51.978;5.650;2023-04-24T16:03:52;14.8;51.9
78708;SHT31;68037;51.978;5.650;2023-04-24T16:06:24;15.0;51.4
78708;SHT31;68037;51.978;5.650;2023-04-24T16:08:54;15.1;50.6
78708;SHT31;68037;51.978;5.650;2023-04-24T16:11:25;15.1;50.3
78708;SHT31;68037;51.978;5.650;2023-04-24T16:13:55;15.1;49.1
78708;SHT31;68037;51.978;5.650;2023-04-24T16:16:24;15.0;49.7
78708;SHT31;68037;51.978;5.650;2023-04-24T16:18:55;14.9;48.9
78708;SHT31;68037;51.978;5.650;2023-04-24T16:21:25;14.8;48.7
78708;SHT31;68037;51.978;5.650;2023-04-24T16:23:54;14.8;48.9
78708;SHT31;68037;51.978;5.650;2023-04-24T16:26:24;14.7;48.0